Time;durP1;ratioP1;P1;durP2;ratioP2;P2;SDS_P1;SDS_P2;PMS_P1;PMS_P2;Temp;Humidity;BMP_temperature;BMP_pressure;BME280_temperature;BME280_humidity;BME280_pressure;Samples;Min_cycle;Max_cycle;Signal;HPM_P1;HPM_P2
2022/03/24 00:02:04;;;;;;;;;;;7.20;97.00;;;;;;4995165;28;19952;-78
2022/03/24 00:04:29;;;;;;;;;;;7.20;99.10;;;;;;4962597;28;20356;-78
2022/03/24 00:06:55;;;;;;;;;;;7.20;99.90;;;;;;4970893;28;20000;-78
2022/03/24 00:09:20;;;;;;;;;;;7.10;99.90;;;;;;4996860;28;19924;-78
2022/03/24 00:11:47;;;;;;;;;;;7.10;99.90;;;;;;4962018;28;19967;-78
2022/03/24 00:14:13;;;;;;;;;;;6.80;99.90;;;;;;4978281;28;20356;-78
2022/03/24 00:16:39;;;;;;;;;;;6.80;99.90;;;;;;4977953;28;19929;-78
2022/03/24 00:19:05;;;;;;;;;;;6.80;99.90;;;;;;4975231;28;19917;-78
2022/03/24 00:21:30;;;;;;;;;;;6.80;99.90;;;;;;4991425;28;19921;-78
2022/03/24 00:23:56;;;;;;;;;;;7.60;99.90;;;;;;4960717;28;19989;-78
2022/03/24 00:26:22;;;;;;;;;;;6.90;99.90;;;;;;4969256;28;20336;-78
2022/03/24 00:28:47;;;;;;;;;;;6.90;99.90;;;;;;4980872;28;19917;-78
2022/03/24 00:31:14;;;;;;;;;;;7.80;99.90;;;;;;5013078;28;20016;-78
2022/03/24 00:33:39;;;;;;;;;;;6.90;99.90;;;;;;4980796;28;19924;-78
2022/03/24 00:36:05;;;;;;;;;;;6.90;99.90;;;;;;5013568;28;19925;-78
2022/03/24 00:38:31;;;;;;;;;;;6.90;99.90;;;;;;4993853;28;20388;-78
2022/03/24 00:40:57;;;;;;;;;;;6.80;99.90;;;;;;4978026;28;20025;-78
2022/03/24 00:43:22;;;;;;;;;;;6.80;99.90;;;;;;4978002;28;19961;-78
2022/03/24 00:45:49;;;;;;;;;;;6.80;99.90;;;;;;4962240;28;19918;-78
2022/03/24 00:48:16;;;;;;;;;;;6.80;99.90;;;;;;4961620;28;19939;-78
2022/03/24 00:50:41;;;;;;;;;;;6.70;99.90;;;;;;4977491;28;20353;-78
2022/03/24 00:53:07;;;;;;;;;;;6.70;99.90;;;;;;4945586;28;19968;-78
2022/03/24 00:55:34;;;;;;;;;;;8.10;99.90;;;;;;4960102;28;20042;-78
2022/03/24 00:58:00;;;;;;;;;;;6.60;99.90;;;;;;4961856;28;19924;-78
2022/03/24 01:00:26;;;;;;;;;;;6.70;99.90;;;;;;4961355;28;19922;-78
2022/03/24 01:02:52;;;;;;;;;;;6.60;99.90;;;;;;4991862;28;19955;-78
2022/03/24 01:05:19;;;;;;;;;;;6.60;99.90;;;;;;4995520;28;19921;-78
2022/03/24 01:07:45;;;;;;;;;;;6.60;99.90;;;;;;4996726;28;20281;-78
2022/03/24 01:10:11;;;;;;;;;;;6.60;99.90;;;;;;4995757;28;19921;-78
2022/03/24 01:12:39;;;;;;;;;;;6.60;99.90;;;;;;4996808;28;19917;-78
2022/03/24 01:15:14;;;;;;;;;;;6.60;99.90;;;;;;4979894;28;19932;-78
2022/03/24 01:17:40;;;;;;;;;;;6.60;99.90;;;;;;4995729;28;19964;-78
2022/03/24 01:20:07;;;;;;;;;;;6.80;99.90;;;;;;4980466;28;20288;-78
2022/03/24 01:22:33;;;;;;;;;;;6.60;99.90;;;;;;4996644;28;19958;-78
2022/03/24 01:24:59;;;;;;;;;;;7.50;99.90;;;;;;4980679;28;19924;-78
2022/03/24 01:27:26;;;;;;;;;;;6.70;99.90;;;;;;4981157;28;19917;-78
2022/03/24 01:29:54;;;;;;;;;;;6.50;99.90;;;;;;4964674;28;19918;-78
2022/03/24 01:32:20;;;;;;;;;;;6.50;99.90;;;;;;4980025;28;20275;-78
2022/03/24 01:34:45;;;;;;;;;;;6.50;99.90;;;;;;4980539;28;19932;-78
2022/03/24 01:37:11;;;;;;;;;;;6.60;99.90;;;;;;4980417;28;20012;-78
2022/03/24 01:39:37;;;;;;;;;;;6.50;99.90;;;;;;4996444;28;20372;-78
2022/03/24 01:42:05;;;;;;;;;;;6.80;99.90;;;;;;4980301;28;20257;-78
2022/03/24 01:44:31;;;;;;;;;;;6.50;99.90;;;;;;4983276;28;19939;-78
2022/03/24 01:47:00;;;;;;;;;;;6.50;99.90;;;;;;4999034;28;19917;-78
2022/03/24 01:49:28;;;;;;;;;;;6.50;99.90;;;;;;4982814;28;19925;-78
2022/03/24 01:51:54;;;;;;;;;;;6.50;99.90;;;;;;4998489;28;19917;-78
2022/03/24 01:54:21;;;;;;;;;;;6.40;99.90;;;;;;4983082;28;19928;-78
2022/03/24 01:56:47;;;;;;;;;;;6.40;99.90;;;;;;4983042;28;20364;-78
2022/03/24 01:59:14;;;;;;;;;;;6.40;99.90;;;;;;4999469;28;20003;-78
2022/03/24 02:01:40;;;;;;;;;;;6.50;99.90;;;;;;4983185;28;19957;-78
2022/03/24 02:04:06;;;;;;;;;;;6.30;99.90;;;;;;4982670;28;19921;-78
2022/03/24 02:06:32;;;;;;;;;;;6.10;99.90;;;;;;4967337;28;20265;-78
2022/03/24 02:08:58;;;;;;;;;;;6.10;99.90;;;;;;4999227;28;19925;-78
2022/03/24 02:11:24;;;;;;;;;;;6.30;99.90;;;;;;4983806;28;20055;-78
2022/03/24 02:13:49;;;;;;;;;;;6.10;99.90;;;;;;4967038;28;19981;-78
2022/03/24 02:16:15;;;;;;;;;;;6.50;99.90;;;;;;4999503;28;19932;-78
2022/03/24 02:18:41;;;;;;;;;;;6.00;99.90;;;;;;4966341;28;19917;-78
2022/03/24 02:21:06;;;;;;;;;;;6.50;99.90;;;;;;4966510;28;20003;-78
2022/03/24 02:23:32;;;;;;;;;;;6.10;99.90;;;;;;4998744;28;20038;-78
2022/03/24 02:25:58;;;;;;;;;;;5.90;99.90;;;;;;4998740;28;20384;-78
2022/03/24 02:28:23;;;;;;;;;;;5.90;99.90;;;;;;4982568;28;19917;-78
2022/03/24 02:30:50;;;;;;;;;;;5.90;99.90;;;;;;4982804;28;19979;-78
2022/03/24 02:33:25;;;;;;;;;;;6.80;99.90;;;;;;4997857;28;19928;-78
2022/03/24 02:35:51;;;;;;;;;;;5.80;99.90;;;;;;4982363;28;19972;-78
2022/03/24 02:38:20;;;;;;;;;;;5.80;99.90;;;;;;4981975;28;19981;-78
2022/03/24 02:40:52;;;;;;;;;;;5.70;99.90;;;;;;4962873;28;20404;-78
2022/03/24 02:43:19;;;;;;;;;;;5.70;99.90;;;;;;4978577;28;19997;-78
2022/03/24 02:45:46;;;;;;;;;;;5.70;99.90;;;;;;4978809;28;19917;-78
2022/03/24 02:48:11;;;;;;;;;;;5.70;99.90;;;;;;4961860;28;19953;-78
2022/03/24 02:50:37;;;;;;;;;;;5.80;99.90;;;;;;4962752;28;20285;-78
2022/03/24 02:53:03;;;;;;;;;;;5.70;99.90;;;;;;4946822;28;20016;-78
2022/03/24 02:55:30;;;;;;;;;;;5.90;99.90;;;;;;4978140;28;19922;-78
2022/03/24 02:57:55;;;;;;;;;;;6.00;99.90;;;;;;4978436;28;19972;-78
2022/03/24 03:00:22;;;;;;;;;;;5.70;99.90;;;;;;4962768;28;20296;-78
2022/03/24 03:02:48;;;;;;;;;;;5.70;99.90;;;;;;4977371;28;20005;-78
2022/03/24 03:05:13;;;;;;;;;;;5.90;99.90;;;;;;4946219;28;19960;-78
2022/03/24 03:07:40;;;;;;;;;;;5.40;99.90;;;;;;4945792;28;19918;-78
2022/03/24 03:10:05;;;;;;;;;;;5.50;99.90;;;;;;4946683;28;20368;-78
2022/03/24 03:12:31;;;;;;;;;;;5.30;99.90;;;;;;4961778;28;20059;-78
2022/03/24 03:14:57;;;;;;;;;;;5.30;99.90;;;;;;4962475;28;20020;-78
2022/03/24 03:17:22;;;;;;;;;;;5.40;99.90;;;;;;4945075;28;19918;-78
2022/03/24 03:19:48;;;;;;;;;;;6.50;99.90;;;;;;4978236;28;19917;-78
2022/03/24 03:22:14;;;;;;;;;;;5.50;99.90;;;;;;4977711;28;19928;-78
2022/03/24 03:24:40;;;;;;;;;;;5.50;99.90;;;;;;4978095;28;19972;-78
2022/03/24 03:27:06;;;;;;;;;;;5.50;99.90;;;;;;4977996;28;19925;-78
2022/03/24 03:29:32;;;;;;;;;;;5.50;99.90;;;;;;4977775;28;19949;-78
2022/03/24 03:31:57;;;;;;;;;;;5.40;99.90;;;;;;4996259;28;19925;-78
2022/03/24 03:34:24;;;;;;;;;;;5.40;99.90;;;;;;4980702;28;19928;-78
2022/03/24 03:36:51;;;;;;;;;;;6.30;99.90;;;;;;4980593;28;19922;-78
2022/03/24 03:39:16;;;;;;;;;;;5.50;99.90;;;;;;4980844;28;20008;-78
2022/03/24 03:41:42;;;;;;;;;;;5.40;99.90;;;;;;4997358;28;19965;-78
2022/03/24 03:44:08;;;;;;;;;;;5.40;99.90;;;;;;4997063;28;19918;-78
2022/03/24 03:46:34;;;;;;;;;;;5.40;99.90;;;;;;4980745;28;19921;-78
2022/03/24 03:49:00;;;;;;;;;;;5.40;99.90;;;;;;4980086;28;19917;-78
2022/03/24 03:51:27;;;;;;;;;;;5.30;99.90;;;;;;4981017;28;19929;-78
2022/03/24 03:53:53;;;;;;;;;;;5.80;99.90;;;;;;4996772;28;19928;-78
2022/03/24 03:56:19;;;;;;;;;;;5.30;99.90;;;;;;4980635;28;19928;-78
2022/03/24 03:58:44;;;;;;;;;;;5.30;99.90;;;;;;4996844;28;19917;-78
2022/03/24 04:01:10;;;;;;;;;;;5.30;99.90;;;;;;4980625;28;19924;-78
2022/03/24 04:03:37;;;;;;;;;;;5.20;99.90;;;;;;4963220;28;19925;-78
2022/03/24 04:06:06;;;;;;;;;;;5.20;99.90;;;;;;4980190;28;19917;-78
2022/03/24 04:08:32;;;;;;;;;;;5.20;99.90;;;;;;4980887;28;19917;-78
2022/03/24 04:10:58;;;;;;;;;;;5.40;99.90;;;;;;4980684;28;19921;-78
2022/03/24 04:13:24;;;;;;;;;;;5.40;99.90;;;;;;4996849;28;19917;-78
2022/03/24 04:15:50;;;;;;;;;;;5.20;99.90;;;;;;4980386;28;19928;-78
2022/03/24 04:18:16;;;;;;;;;;;5.20;99.90;;;;;;4963541;28;19928;-78
2022/03/24 04:20:42;;;;;;;;;;;5.20;99.90;;;;;;4980172;28;19917;-78
2022/03/24 04:23:07;;;;;;;;;;;5.20;99.90;;;;;;4980139;28;19924;-78
2022/03/24 04:25:34;;;;;;;;;;;5.20;99.90;;;;;;4980162;28;20348;-78
2022/03/24 04:28:01;;;;;;;;;;;5.20;99.90;;;;;;4996521;28;20292;-78
2022/03/24 04:30:26;;;;;;;;;;;5.10;99.90;;;;;;4980431;28;20349;-78
2022/03/24 04:32:53;;;;;;;;;;;5.10;99.90;;;;;;4979121;28;20047;-78
2022/03/24 04:35:18;;;;;;;;;;;4.80;99.90;;;;;;4980009;28;19925;-78
2022/03/24 04:37:44;;;;;;;;;;;4.50;99.90;;;;;;4996142;28;19925;-78
2022/03/24 04:40:11;;;;;;;;;;;4.40;99.90;;;;;;4979582;28;19968;-78
2022/03/24 04:42:37;;;;;;;;;;;4.30;99.90;;;;;;4995737;28;19965;-78
2022/03/24 04:45:03;;;;;;;;;;;5.50;99.90;;;;;;4980305;28;20012;-78
2022/03/24 04:47:29;;;;;;;;;;;4.40;99.90;;;;;;4995167;28;19965;-78
2022/03/24 04:49:55;;;;;;;;;;;4.40;99.90;;;;;;4995995;28;19957;-78
2022/03/24 04:52:22;;;;;;;;;;;4.40;99.90;;;;;;4995910;28;19917;-78
2022/03/24 04:54:47;;;;;;;;;;;4.40;99.90;;;;;;4979389;28;19964;-78
2022/03/24 04:57:13;;;;;;;;;;;4.70;99.90;;;;;;4979831;28;19987;-78
2022/03/24 04:59:39;;;;;;;;;;;4.70;99.90;;;;;;4995937;28;19924;-78
2022/03/24 05:02:05;;;;;;;;;;;4.50;99.90;;;;;;4979018;28;19960;-78
2022/03/24 05:04:30;;;;;;;;;;;4.30;99.90;;;;;;4979160;28;19967;-78
2022/03/24 05:06:56;;;;;;;;;;;4.40;99.90;;;;;;4979387;28;19972;-78
2022/03/24 05:09:21;;;;;;;;;;;4.30;99.90;;;;;;4988203;28;20081;-78
2022/03/24 05:11:47;;;;;;;;;;;4.20;99.90;;;;;;4944088;28;19918;-78
2022/03/24 05:14:12;;;;;;;;;;;4.10;99.90;;;;;;4959769;28;20335;-78
2022/03/24 05:16:38;;;;;;;;;;;4.30;99.90;;;;;;4959867;28;19925;-78
2022/03/24 05:19:04;;;;;;;;;;;3.90;99.90;;;;;;4963036;28;19922;-78
2022/03/24 05:21:31;;;;;;;;;;;3.90;99.90;;;;;;4979917;28;19917;-78
2022/03/24 05:23:57;;;;;;;;;;;3.90;99.90;;;;;;4963650;28;20242;-78
2022/03/24 05:26:23;;;;;;;;;;;4.00;99.90;;;;;;4963557;28;19925;-78
2022/03/24 05:28:49;;;;;;;;;;;4.10;99.90;;;;;;4947710;28;19924;-78
2022/03/24 05:31:16;;;;;;;;;;;5.30;99.90;;;;;;4979574;28;19924;-78
2022/03/24 05:33:43;;;;;;;;;;;3.80;99.90;;;;;;4962375;28;19917;-78
2022/03/24 05:36:08;;;;;;;;;;;5.20;99.90;;;;;;4979448;28;19918;-78
2022/03/24 05:38:34;;;;;;;;;;;3.80;99.90;;;;;;4963205;28;19921;-78
2022/03/24 05:40:59;;;;;;;;;;;3.90;99.90;;;;;;4979505;28;19918;-78
2022/03/24 05:43:25;;;;;;;;;;;3.80;99.90;;;;;;4979265;28;20328;-78
2022/03/24 05:45:51;;;;;;;;;;;3.80;99.90;;;;;;4963290;28;20369;-78
2022/03/24 05:48:16;;;;;;;;;;;3.80;99.90;;;;;;4962425;28;19918;-78
2022/03/24 05:50:43;;;;;;;;;;;3.90;99.90;;;;;;4947023;28;19918;-78
2022/03/24 05:53:08;;;;;;;;;;;4.00;99.90;;;;;;4963064;28;19925;-78
2022/03/24 05:55:36;;;;;;;;;;;5.00;99.90;;;;;;4962938;28;20365;-78
2022/03/24 05:58:02;;;;;;;;;;;4.10;99.90;;;;;;4978744;28;19924;-78
2022/03/24 06:00:27;;;;;;;;;;;5.00;99.90;;;;;;4962910;28;19918;-78
2022/03/24 06:02:56;;;;;;;;;;;5.80;99.90;;;;;;4977885;28;19918;-78
2022/03/24 06:05:23;;;;;;;;;;;4.20;99.90;;;;;;4962953;28;19926;-78
2022/03/24 06:07:49;;;;;;;;;;;4.10;99.90;;;;;;4962750;28;19925;-78
2022/03/24 06:10:14;;;;;;;;;;;4.10;99.90;;;;;;4962716;28;19917;-78
2022/03/24 06:12:40;;;;;;;;;;;5.20;99.90;;;;;;4979043;28;19917;-78
2022/03/24 06:15:06;;;;;;;;;;;4.20;99.90;;;;;;4978741;28;19925;-78
2022/03/24 06:17:32;;;;;;;;;;;4.10;99.90;;;;;;4961836;28;20797;-78
2022/03/24 06:19:58;;;;;;;;;;;4.20;99.90;;;;;;4978884;28;20008;-78
2022/03/24 06:22:24;;;;;;;;;;;4.30;99.90;;;;;;4962458;28;20004;-78
2022/03/24 06:24:49;;;;;;;;;;;4.40;99.90;;;;;;4978826;28;19917;-78
2022/03/24 06:27:17;;;;;;;;;;;4.90;99.90;;;;;;4978405;28;19921;-78
2022/03/24 06:29:43;;;;;;;;;;;4.50;99.90;;;;;;4977690;28;19918;-78
2022/03/24 06:32:08;;;;;;;;;;;4.50;99.90;;;;;;4962280;28;19925;-78
2022/03/24 06:34:34;;;;;;;;;;;4.70;99.90;;;;;;4978132;28;20012;-78
2022/03/24 06:37:01;;;;;;;;;;;4.80;99.90;;;;;;4962533;28;19929;-78
2022/03/24 06:39:26;;;;;;;;;;;5.60;99.90;;;;;;4978286;28;19925;-78
2022/03/24 06:41:52;;;;;;;;;;;6.70;99.90;;;;;;4978481;28;19918;-78
2022/03/24 06:44:17;;;;;;;;;;;7.50;99.90;;;;;;4968076;28;19918;-78
2022/03/24 06:46:43;;;;;;;;;;;8.00;99.90;;;;;;5013618;28;19924;-79
2022/03/24 06:49:09;;;;;;;;;;;8.70;99.90;;;;;;4976993;28;19924;-78
2022/03/24 06:51:35;;;;;;;;;;;9.20;99.90;;;;;;4995553;28;20012;-79
2022/03/24 06:54:01;;;;;;;;;;;9.70;99.90;;;;;;4988475;28;19921;-79
2022/03/24 06:56:26;;;;;;;;;;;10.10;99.90;;;;;;4997879;28;19925;-79
2022/03/24 06:58:52;;;;;;;;;;;10.40;99.90;;;;;;5001393;28;20007;-80
2022/03/24 07:01:18;;;;;;;;;;;10.60;99.90;;;;;;4987706;28;19917;-80
2022/03/24 07:03:44;;;;;;;;;;;11.20;99.90;;;;;;4975178;28;20292;-80
2022/03/24 07:06:09;;;;;;;;;;;11.80;98.20;;;;;;4978061;28;19917;-80
2022/03/24 07:08:36;;;;;;;;;;;12.10;96.00;;;;;;4974956;28;19921;-80
2022/03/24 07:11:02;;;;;;;;;;;12.30;93.30;;;;;;4999629;28;19986;-81
2022/03/24 07:13:28;;;;;;;;;;;12.60;90.70;;;;;;5001914;28;19918;-80
2022/03/24 07:15:53;;;;;;;;;;;12.90;89.70;;;;;;4999935;28;20341;-79
2022/03/24 07:18:19;;;;;;;;;;;13.60;85.40;;;;;;5003093;28;19918;-79
2022/03/24 07:20:44;;;;;;;;;;;13.70;79.40;;;;;;4985331;28;20005;-79
2022/03/24 07:23:10;;;;;;;;;;;13.80;76.50;;;;;;4968050;28;20009;-79
2022/03/24 07:25:36;;;;;;;;;;;13.80;74.70;;;;;;4981933;28;19925;-80
2022/03/24 07:28:02;;;;;;;;;;;13.60;75.40;;;;;;4999857;28;19917;-80
2022/03/24 07:30:28;;;;;;;;;;;13.10;76.40;;;;;;4992557;28;19918;-80
2022/03/24 07:32:55;;;;;;;;;;;12.90;78.40;;;;;;4997847;28;20383;-79
2022/03/24 07:35:24;;;;;;;;;;;12.90;77.70;;;;;;4995655;28;19976;-79
2022/03/24 07:37:50;;;;;;;;;;;12.90;77.40;;;;;;4992059;28;20004;-79
2022/03/24 07:40:18;;;;;;;;;;;13.00;75.40;;;;;;4993605;28;19918;-79
2022/03/24 07:42:44;;;;;;;;;;;13.00;76.60;;;;;;4979947;28;19926;-79
2022/03/24 07:45:11;;;;;;;;;;;13.30;76.30;;;;;;4999467;28;19918;-79
2022/03/24 07:47:57;;;;;;;;;;;13.40;72.20;;;;;;4978646;28;19957;-79
2022/03/24 07:50:22;;;;;;;;;;;13.50;69.90;;;;;;4962590;28;19936;-79
2022/03/24 07:52:48;;;;;;;;;;;13.30;72.20;;;;;;4983364;28;20008;-79
2022/03/24 07:55:14;;;;;;;;;;;13.50;72.40;;;;;;4998607;28;19976;-79
2022/03/24 07:57:40;;;;;;;;;;;13.50;69.60;;;;;;4983338;28;19917;-79
2022/03/24 08:00:06;;;;;;;;;;;13.30;64.20;;;;;;4999293;28;19995;-79
2022/03/24 08:02:31;;;;;;;;;;;13.00;64.20;;;;;;4982633;28;19921;-79
2022/03/24 08:04:57;;;;;;;;;;;12.70;65.80;;;;;;4982270;28;19921;-79
2022/03/24 08:07:22;;;;;;;;;;;12.20;65.30;;;;;;5002752;28;19921;-78
2022/03/24 08:09:50;;;;;;;;;;;12.20;70.30;;;;;;4984183;28;19980;-78
2022/03/24 08:12:16;;;;;;;;;;;12.00;70.00;;;;;;4992506;28;20012;-78
2022/03/24 08:14:41;;;;;;;;;;;12.00;75.10;;;;;;4957665;28;20336;-78
2022/03/24 08:17:07;;;;;;;;;;;12.10;72.10;;;;;;4991878;28;19921;-78
2022/03/24 08:19:34;;;;;;;;;;;12.00;75.40;;;;;;4990091;28;19918;-78
2022/03/24 08:21:59;;;;;;;;;;;11.90;79.10;;;;;;4989297;28;19918;-78
2022/03/24 08:24:25;;;;;;;;;;;12.00;80.30;;;;;;4975763;28;20388;-78
2022/03/24 08:26:50;;;;;;;;;;;11.80;83.40;;;;;;4976281;28;19917;-78
2022/03/24 08:29:16;;;;;;;;;;;11.80;89.20;;;;;;4973722;28;19921;-78
2022/03/24 08:31:41;;;;;;;;;;;11.80;89.20;;;;;;4995198;28;19924;-78
2022/03/24 08:34:07;;;;;;;;;;;11.80;90.30;;;;;;4976097;28;19925;-78
2022/03/24 08:36:33;;;;;;;;;;;12.10;87.70;;;;;;4984034;28;19922;-78
2022/03/24 08:38:59;;;;;;;;;;;12.00;86.20;;;;;;4984446;28;19917;-78
2022/03/24 08:41:25;;;;;;;;;;;12.20;86.10;;;;;;5001438;28;20062;-78
2022/03/24 08:43:51;;;;;;;;;;;12.30;86.20;;;;;;4997747;28;19956;-78
2022/03/24 08:46:17;;;;;;;;;;;12.50;82.90;;;;;;4980816;28;19917;-78
2022/03/24 08:48:42;;;;;;;;;;;13.30;84.80;;;;;;4968542;28;19940;-78
2022/03/24 08:51:08;;;;;;;;;;;13.40;74.90;;;;;;4970323;28;19925;-79
2022/03/24 08:53:33;;;;;;;;;;;13.60;70.00;;;;;;4997033;28;20371;-78
2022/03/24 08:55:59;;;;;;;;;;;13.50;69.70;;;;;;4997268;28;19928;-79
2022/03/24 08:58:24;;;;;;;;;;;13.60;68.80;;;;;;4993858;28;20001;-77
2022/03/24 09:00:50;;;;;;;;;;;13.60;71.30;;;;;;4987276;28;19961;-78
2022/03/24 09:03:16;;;;;;;;;;;13.70;67.30;;;;;;5010775;28;19917;-78
2022/03/24 09:05:42;;;;;;;;;;;13.90;68.70;;;;;;4994020;28;20008;-78
2022/03/24 09:08:08;;;;;;;;;;;14.00;70.60;;;;;;5010008;28;19959;-78
2022/03/24 09:10:34;;;;;;;;;;;13.80;69.30;;;;;;5010889;28;19918;-78
2022/03/24 09:12:59;;;;;;;;;;;14.60;69.40;;;;;;4992223;28;19940;-78
2022/03/24 09:15:26;;;;;;;;;;;14.70;66.20;;;;;;4968910;28;19992;-78
2022/03/24 09:17:51;;;;;;;;;;;15.00;65.20;;;;;;4975380;28;19922;-78
2022/03/24 09:20:23;;;;;;;;;;;15.10;65.00;;;;;;4991295;28;19925;-78
2022/03/24 09:22:49;;;;;;;;;;;15.40;63.20;;;;;;4977449;28;20376;-78
2022/03/24 09:25:15;;;;;;;;;;;15.70;63.90;;;;;;4993949;28;19944;-78
2022/03/24 09:27:42;;;;;;;;;;;15.60;61.50;;;;;;4991827;28;19917;-78
2022/03/24 09:30:09;;;;;;;;;;;15.60;63.10;;;;;;4991883;28;19918;-78
2022/03/24 09:32:35;;;;;;;;;;;15.90;61.60;;;;;;4990231;28;19917;-78
2022/03/24 09:35:03;;;;;;;;;;;16.10;62.40;;;;;;4972585;28;19917;-79
2022/03/24 09:37:29;;;;;;;;;;;16.30;61.20;;;;;;4988211;28;20005;-78
2022/03/24 09:39:54;;;;;;;;;;;16.50;58.80;;;;;;4986381;28;19957;-78
2022/03/24 09:42:21;;;;;;;;;;;16.50;57.80;;;;;;4987080;28;20387;-79
2022/03/24 09:44:47;;;;;;;;;;;16.60;58.60;;;;;;5008041;28;19917;-79
2022/03/24 09:47:13;;;;;;;;;;;16.80;57.80;;;;;;4995744;28;19921;-79
2022/03/24 09:49:40;;;;;;;;;;;16.90;56.90;;;;;;5014049;28;19918;-78
2022/03/24 09:52:06;;;;;;;;;;;16.80;56.60;;;;;;5020587;28;19922;-78
2022/03/24 09:54:32;;;;;;;;;;;17.00;54.50;;;;;;5000167;28;19993;-78
2022/03/24 09:57:03;;;;;;;;;;;16.60;54.80;;;;;;4994822;28;19990;-78
2022/03/24 09:59:29;;;;;;;;;;;16.50;55.30;;;;;;4985486;28;19989;-78
2022/03/24 10:01:57;;;;;;;;;;;16.60;55.90;;;;;;4988834;28;19988;-78
2022/03/24 10:04:23;;;;;;;;;;;16.60;55.50;;;;;;4974045;28;19918;-78
2022/03/24 10:06:59;;;;;;;;;;;16.80;58.00;;;;;;4989166;28;19918;-78
2022/03/24 10:09:45;;;;;;;;;;;17.00;56.10;;;;;;4987851;28;19960;-78
2022/03/24 10:12:19;;;;;;;;;;;17.30;55.80;;;;;;4988883;28;19924;-78
2022/03/24 10:14:45;;;;;;;;;;;17.20;53.50;;;;;;4982358;28;19918;-78
2022/03/24 10:17:11;;;;;;;;;;;17.20;54.10;;;;;;5024603;28;19917;-78
2022/03/24 10:19:39;;;;;;;;;;;17.40;53.30;;;;;;5040208;28;19917;-78
2022/03/24 10:22:08;;;;;;;;;;;17.60;53.00;;;;;;5003909;28;19942;-78
2022/03/24 10:24:43;;;;;;;;;;;17.40;53.00;;;;;;4987726;28;19918;-78
2022/03/24 10:27:11;;;;;;;;;;;17.50;52.00;;;;;;4987835;28;19925;-78
2022/03/24 10:29:37;;;;;;;;;;;17.70;50.30;;;;;;4986930;28;19918;-78
2022/03/24 10:32:03;;;;;;;;;;;17.70;49.20;;;;;;4986417;28;19925;-78
2022/03/24 10:34:30;;;;;;;;;;;17.70;51.30;;;;;;4986468;28;20443;-78
2022/03/24 10:36:56;;;;;;;;;;;18.00;51.70;;;;;;4986999;28;20380;-78
2022/03/24 10:39:26;;;;;;;;;;;17.80;50.10;;;;;;4970594;28;19918;-78
2022/03/24 10:41:52;;;;;;;;;;;17.90;49.70;;;;;;4968636;28;19918;-78
2022/03/24 10:44:17;;;;;;;;;;;18.00;49.00;;;;;;4983724;28;19918;-78
2022/03/24 10:46:43;;;;;;;;;;;18.00;47.50;;;;;;4977079;28;19980;-79
2022/03/24 10:49:18;;;;;;;;;;;18.00;48.40;;;;;;4967284;28;19925;-79
2022/03/24 10:51:45;;;;;;;;;;;18.10;49.80;;;;;;4992580;28;20309;-79
2022/03/24 10:54:20;;;;;;;;;;;18.30;47.80;;;;;;5003567;28;20019;-78
2022/03/24 10:56:46;;;;;;;;;;;18.10;46.50;;;;;;5004067;28;19925;-80
2022/03/24 10:59:12;;;;;;;;;;;18.30;45.00;;;;;;4999097;28;19985;-79
2022/03/24 11:01:37;;;;;;;;;;;18.30;45.60;;;;;;5012364;28;19924;-79
2022/03/24 11:04:05;;;;;;;;;;;18.30;44.90;;;;;;5011965;28;19946;-79
2022/03/24 11:06:31;;;;;;;;;;;18.30;41.80;;;;;;5011290;28;19917;-79
2022/03/24 11:09:00;;;;;;;;;;;18.20;42.30;;;;;;5010757;28;19968;-79
2022/03/24 11:11:27;;;;;;;;;;;18.10;41.70;;;;;;4994683;28;20026;-79
2022/03/24 11:13:54;;;;;;;;;;;18.40;41.40;;;;;;5010527;28;19968;-78
2022/03/24 11:16:21;;;;;;;;;;;18.20;41.20;;;;;;4995626;28;19922;-79
2022/03/24 11:18:48;;;;;;;;;;;18.40;41.00;;;;;;4995568;28;20386;-79
2022/03/24 11:21:16;;;;;;;;;;;18.40;42.10;;;;;;4996433;28;19918;-78
2022/03/24 11:23:41;;;;;;;;;;;18.60;42.10;;;;;;4998515;28;20284;-78
2022/03/24 11:26:08;;;;;;;;;;;18.60;42.10;;;;;;4989845;28;19918;-78
2022/03/24 11:28:37;;;;;;;;;;;18.80;39.40;;;;;;5001343;28;19953;-78
2022/03/24 11:31:07;;;;;;;;;;;18.70;39.20;;;;;;4989078;28;19917;-78
2022/03/24 11:33:37;;;;;;;;;;;18.70;39.30;;;;;;5000534;28;19918;-78
2022/03/24 11:36:03;;;;;;;;;;;18.70;39.80;;;;;;4997462;28;19925;-79
2022/03/24 11:38:28;;;;;;;;;;;18.60;40.00;;;;;;5001372;28;19988;-79
2022/03/24 11:40:59;;;;;;;;;;;18.70;40.90;;;;;;4985917;28;19917;-79
2022/03/24 11:43:25;;;;;;;;;;;18.90;36.50;;;;;;4995537;28;20173;-79
2022/03/24 11:45:59;;;;;;;;;;;18.90;34.70;;;;;;4984080;28;19918;-79
2022/03/24 11:48:31;;;;;;;;;;;18.90;36.80;;;;;;5003630;28;19925;-79
2022/03/24 11:50:57;;;;;;;;;;;18.70;36.40;;;;;;4987026;28;19906;-79
2022/03/24 11:53:25;;;;;;;;;;;18.80;37.60;;;;;;4982867;28;20009;-79
2022/03/24 11:56:11;;;;;;;;;;;18.80;37.50;;;;;;4980790;28;19991;-79
2022/03/24 11:58:45;;;;;;;;;;;18.90;34.60;;;;;;4996703;28;20281;-79
2022/03/24 12:01:20;;;;;;;;;;;19.00;33.00;;;;;;4980640;28;20277;-79
2022/03/24 12:03:46;;;;;;;;;;;18.90;35.20;;;;;;4979806;28;19929;-79
2022/03/24 12:06:13;;;;;;;;;;;19.00;35.40;;;;;;4967041;28;20016;-79
2022/03/24 12:08:46;;;;;;;;;;;19.20;37.60;;;;;;4993032;28;19917;-79
2022/03/24 12:11:44;;;;;;;;;;;19.10;36.10;;;;;;4970335;28;19922;-79
2022/03/24 12:14:30;;;;;;;;;;;19.10;35.00;;;;;;4977190;28;20018;-78
2022/03/24 12:16:56;;;;;;;;;;;19.10;34.50;;;;;;4982046;28;19926;-78
2022/03/24 12:19:35;;;;;;;;;;;19.10;36.30;;;;;;4997768;28;20020;-78
2022/03/24 12:22:01;;;;;;;;;;;19.00;36.30;;;;;;4980039;28;19923;-78
2022/03/24 12:24:37;;;;;;;;;;;19.20;37.40;;;;;;4997752;28;19996;-78
2022/03/24 12:27:05;;;;;;;;;;;18.90;33.20;;;;;;5000597;28;19983;-79
2022/03/24 12:29:31;;;;;;;;;;;19.10;34.10;;;;;;5000829;28;19924;-79
2022/03/24 12:31:56;;;;;;;;;;;19.10;34.20;;;;;;4980096;28;19921;-79
2022/03/24 12:34:29;;;;;;;;;;;19.20;34.20;;;;;;4994759;28;19917;-79
2022/03/24 12:36:54;;;;;;;;;;;19.10;35.60;;;;;;4982022;28;20005;-78
2022/03/24 12:39:30;;;;;;;;;;;19.10;33.20;;;;;;4993630;28;19956;-78
2022/03/24 12:42:12;;;;;;;;;;;19.10;33.40;;;;;;4977455;28;19922;-78
2022/03/24 12:44:57;;;;;;;;;;;18.70;30.40;;;;;;4993647;28;19925;-78
2022/03/24 12:47:37;;;;;;;;;;;18.80;32.00;;;;;;4995417;28;19917;-78
2022/03/24 12:50:09;;;;;;;;;;;18.90;31.70;;;;;;4995552;28;19918;-78
2022/03/24 12:52:53;;;;;;;;;;;18.90;31.60;;;;;;4996346;28;19917;-78
2022/03/24 12:55:39;;;;;;;;;;;19.00;32.20;;;;;;4994165;28;20452;-78
2022/03/24 12:58:13;;;;;;;;;;;19.00;31.20;;;;;;4994616;28;19925;-78
2022/03/24 13:00:41;;;;;;;;;;;19.10;31.80;;;;;;4994159;28;19940;-78
2022/03/24 13:03:07;;;;;;;;;;;18.80;32.60;;;;;;4976595;28;19968;-78
2022/03/24 13:05:34;;;;;;;;;;;19.00;31.10;;;;;;4994884;28;19917;-78
2022/03/24 13:08:02;;;;;;;;;;;18.80;32.00;;;;;;4999402;28;19924;-78
2022/03/24 13:10:30;;;;;;;;;;;18.80;31.50;;;;;;4995422;28;19917;-78
2022/03/24 13:12:56;;;;;;;;;;;18.80;34.00;;;;;;4996074;28;19922;-78
2022/03/24 13:15:26;;;;;;;;;;;18.90;33.60;;;;;;4994579;28;20410;-78
2022/03/24 13:17:53;;;;;;;;;;;18.90;34.30;;;;;;4986744;28;19925;-78
2022/03/24 13:20:20;;;;;;;;;;;18.80;32.80;;;;;;4978921;28;19917;-78
2022/03/24 13:22:47;;;;;;;;;;;18.90;33.50;;;;;;4970215;28;20364;-78
2022/03/24 13:25:15;;;;;;;;;;;19.10;32.20;;;;;;4961760;28;19924;-78
2022/03/24 13:27:45;;;;;;;;;;;19.00;33.60;;;;;;4985430;28;19975;-78
2022/03/24 13:30:12;;;;;;;;;;;18.90;33.90;;;;;;5001360;28;20399;-78
2022/03/24 13:32:38;;;;;;;;;;;19.00;35.20;;;;;;5001233;28;19917;-78
2022/03/24 13:35:09;;;;;;;;;;;19.10;34.40;;;;;;4982547;28;20015;-78
2022/03/24 13:37:57;;;;;;;;;;;19.10;34.70;;;;;;4994541;28;19924;-78
2022/03/24 13:40:27;;;;;;;;;;;19.00;32.80;;;;;;4965853;28;19924;-78
2022/03/24 13:42:53;;;;;;;;;;;18.90;33.60;;;;;;4981664;28;20293;-78
2022/03/24 13:45:19;;;;;;;;;;;18.90;32.80;;;;;;4997911;28;20343;-78
2022/03/24 13:47:46;;;;;;;;;;;18.90;33.00;;;;;;4996731;28;20012;-78
2022/03/24 13:50:16;;;;;;;;;;;18.70;34.70;;;;;;5015106;28;20048;-78
2022/03/24 13:52:43;;;;;;;;;;;18.60;33.40;;;;;;4982008;28;20409;-78
2022/03/24 13:55:11;;;;;;;;;;;18.70;32.70;;;;;;5011369;28;19922;-78
2022/03/24 13:57:43;;;;;;;;;;;18.60;34.20;;;;;;4977588;28;19969;-78
2022/03/24 14:00:09;;;;;;;;;;;18.40;35.00;;;;;;5011063;28;19918;-78
2022/03/24 14:02:35;;;;;;;;;;;18.30;35.10;;;;;;5010279;28;19922;-78
2022/03/24 14:05:09;;;;;;;;;;;18.20;35.00;;;;;;4979212;28;19981;-78
2022/03/24 14:07:54;;;;;;;;;;;18.10;35.10;;;;;;4996233;28;20370;-78
2022/03/24 14:10:20;;;;;;;;;;;18.00;36.00;;;;;;5016071;28;19917;-78
2022/03/24 14:12:50;;;;;;;;;;;18.00;35.90;;;;;;4965965;28;19985;-78
2022/03/24 14:15:16;;;;;;;;;;;18.10;36.60;;;;;;4978970;28;19926;-78
2022/03/24 14:17:42;;;;;;;;;;;18.10;36.50;;;;;;4982406;28;19929;-78
2022/03/24 14:20:09;;;;;;;;;;;18.10;36.40;;;;;;4982635;28;19918;-78
2022/03/24 14:22:47;;;;;;;;;;;18.00;36.70;;;;;;4982559;28;19963;-78
2022/03/24 14:25:13;;;;;;;;;;;18.10;37.50;;;;;;4999683;28;19924;-78